createdAt,value
2023-02-04T00:00:13.349Z,700.17
2023-02-04T00:02:41.551Z,691.75
2023-02-04T00:05:09.160Z,694.97
2023-02-04T00:07:35.937Z,692.55
2023-02-04T00:10:03.672Z,690.78
2023-02-04T00:12:30.425Z,697.05
2023-02-04T00:14:57.172Z,700.05
2023-02-04T00:17:23.917Z,705.63
2023-02-04T00:19:50.668Z,700.77
2023-02-04T00:22:17.369Z,701.03
2023-02-04T00:24:48.433Z,702.00
2023-02-04T00:27:15.253Z,699.70
2023-02-04T00:29:42.292Z,705.40
2023-02-04T05:34:15.921Z,759.38
2023-02-04T05:36:42.577Z,748.30
2023-02-04T05:39:09.263Z,758.15
2023-02-04T05:41:35.844Z,755.05
2023-02-04T05:44:02.614Z,760.40
2023-02-04T05:46:29.349Z,756.53
2023-02-04T05:48:55.925Z,759.78
2023-02-04T05:51:22.546Z,761.22
2023-02-04T05:53:49.604Z,754.40
2023-02-04T05:56:16.227Z,764.88
2023-02-04T05:58:42.866Z,768.20
2023-02-04T06:01:09.586Z,773.80
2023-02-04T06:03:36.294Z,763.05
2023-02-04T06:06:03.052Z,775.17
2023-02-04T06:08:29.705Z,771.50
2023-02-04T06:10:56.364Z,762.67
2023-02-04T06:13:23.326Z,760.72
2023-02-04T06:15:49.964Z,771.10
2023-02-04T06:18:16.710Z,768.20
2023-02-04T06:20:43.337Z,757.17
2023-02-04T06:23:09.997Z,755.73
2023-02-04T06:25:36.717Z,763.38
2023-02-04T06:28:03.687Z,761.47
2023-02-04T06:30:30.833Z,761.20
2023-02-04T06:32:57.879Z,755.58
2023-02-04T06:35:24.538Z,763.10
2023-02-04T06:37:51.130Z,754.38
2023-02-04T06:40:17.937Z,758.33
2023-02-04T06:42:44.541Z,758.72
2023-02-04T06:45:11.213Z,753.17
2023-02-04T06:47:37.838Z,751.42
2023-02-04T06:50:04.647Z,757.60
2023-02-04T06:52:31.301Z,772.23
2023-02-04T06:54:57.879Z,766.22
2023-02-04T06:57:24.493Z,752.40
2023-02-04T06:59:51.096Z,760.90
2023-02-04T07:02:17.719Z,760.10
2023-02-04T07:04:46.029Z,764.00
2023-02-04T07:07:13.567Z,754.30
2023-02-04T07:09:40.592Z,751.20
2023-02-04T07:12:07.594Z,753.08
2023-02-04T07:14:34.296Z,753.90
2023-02-04T07:17:01.126Z,750.10
2023-02-04T07:19:27.779Z,756.05
2023-02-04T07:21:56.651Z,757.60
2023-02-04T07:24:24.062Z,757.25
2023-02-04T07:26:51.185Z,760.40
2023-02-04T07:29:25.061Z,766.40
2023-02-04T07:31:52.897Z,751.85
2023-02-04T07:34:20.084Z,757.90
2023-02-04T07:36:46.847Z,761.72
2023-02-04T07:39:13.521Z,757.25
2023-02-04T07:41:40.169Z,760.55
2023-02-04T07:44:07.023Z,761.97
2023-02-04T07:46:33.758Z,763.70
2023-02-04T07:49:00.428Z,763.75
2023-02-04T07:51:27.930Z,762.78
2023-02-04T07:53:56.182Z,755.78
2023-02-04T07:56:22.899Z,769.70
2023-02-04T07:58:49.587Z,760.40
2023-02-04T08:01:16.842Z,767.78
2023-02-04T08:03:43.676Z,767.47
2023-02-04T08:06:10.444Z,762.38
2023-02-04T08:08:37.189Z,764.63
2023-02-04T08:11:03.844Z,763.78
2023-02-04T08:13:30.457Z,767.25
2023-02-04T08:15:57.146Z,757.25
2023-02-04T08:18:25.030Z,769.10
2023-02-04T08:20:51.976Z,768.25
2023-02-04T08:23:18.653Z,768.92
2023-02-04T08:25:45.539Z,767.17
2023-02-04T08:28:12.445Z,772.97
2023-02-04T08:30:39.208Z,768.78
2023-02-04T08:33:06.070Z,761.72
2023-02-04T08:35:32.683Z,770.55
2023-02-04T08:37:59.307Z,763.22
2023-02-04T08:40:26.046Z,760.40
2023-02-04T08:42:52.725Z,770.80
2023-02-04T08:45:19.406Z,771.92
2023-02-04T08:47:46.190Z,767.15
2023-02-04T08:50:13.203Z,777.58
2023-02-04T08:52:39.855Z,770.40
2023-02-04T08:55:06.898Z,764.92
2023-02-04T08:57:34.997Z,765.40
2023-02-04T09:00:01.797Z,778.25
2023-02-04T09:02:28.479Z,784.25
2023-02-04T09:04:55.153Z,757.08
2023-02-04T09:07:22.498Z,755.60
2023-02-04T09:09:49.229Z,763.97
2023-02-04T09:12:15.937Z,760.00
2023-02-04T09:14:42.554Z,762.35
2023-02-04T09:17:09.303Z,764.75
2023-02-04T09:19:35.906Z,771.25
2023-02-04T09:22:02.553Z,767.65
2023-02-04T09:24:29.197Z,777.58
2023-02-04T09:26:55.889Z,781.10
2023-02-04T09:29:22.544Z,789.03
2023-02-04T09:31:49.340Z,787.22
2023-02-04T09:34:16.185Z,787.08
2023-02-04T09:36:42.821Z,792.35
2023-02-04T09:39:12.369Z,797.23
2023-02-04T09:41:40.711Z,796.60
2023-02-04T09:44:18.374Z,797.47
2023-02-04T09:46:50.013Z,799.60
2023-02-04T09:49:16.874Z,779.27
2023-02-04T09:51:44.801Z,794.30
2023-02-04T09:54:17.793Z,794.78
2023-02-04T09:56:45.059Z,801.65
2023-02-04T09:59:14.572Z,800.33
2023-02-04T10:01:41.932Z,798.65
2023-02-04T10:04:13.066Z,799.03
2023-02-04T10:06:41.682Z,796.47
2023-02-04T10:09:14.515Z,810.30
2023-02-04T10:11:42.845Z,811.55
2023-02-04T10:14:23.183Z,810.47
2023-02-04T10:16:58.502Z,813.85
2023-02-04T10:19:28.550Z,815.60
2023-02-04T10:21:56.151Z,822.45
2023-02-04T10:24:26.394Z,818.88
2023-02-04T10:26:54.140Z,813.65
2023-02-04T10:29:26.665Z,820.97
2023-02-04T10:31:53.552Z,822.05
2023-02-04T10:34:23.729Z,821.63
2023-02-04T10:36:57.652Z,823.17
2023-02-04T10:39:29.682Z,828.97
2023-02-04T10:41:59.179Z,829.90
2023-02-04T10:44:35.878Z,834.72
2023-02-04T10:47:05.317Z,837.83
2023-02-04T10:49:32.917Z,834.13
2023-02-04T10:52:01.460Z,832.05
2023-02-04T10:54:35.423Z,837.03
2023-02-04T10:57:23.695Z,834.90
2023-02-04T10:59:53.600Z,837.38
2023-02-04T11:02:43.774Z,834.33
2023-02-04T11:05:17.464Z,838.42
2023-02-04T11:07:46.004Z,842.53
2023-02-04T11:10:14.691Z,850.65
2023-02-04T11:12:54.690Z,833.30
2023-02-04T11:15:40.461Z,842.72
2023-02-04T11:18:13.604Z,843.78
2023-02-04T11:20:40.828Z,849.45
2023-02-04T11:23:26.048Z,849.83
2023-02-04T11:26:13.379Z,853.10
2023-02-04T11:28:51.103Z,855.80
2023-02-04T11:31:20.750Z,862.30
2023-02-04T11:33:49.165Z,863.97
2023-02-04T11:36:17.093Z,858.53
2023-02-04T11:38:48.892Z,867.38
2023-02-04T11:41:24.875Z,865.37
2023-02-04T11:43:53.051Z,866.15
2023-02-04T11:46:20.437Z,869.40
2023-02-04T11:48:51.813Z,870.40
2023-02-04T11:51:23.362Z,871.60
2023-02-04T11:53:53.375Z,877.72
2023-02-04T11:56:21.986Z,875.70
2023-02-04T11:58:49.960Z,896.15
2023-02-04T12:01:25.091Z,884.15
2023-02-04T12:03:58.309Z,899.53
2023-02-04T12:06:28.133Z,903.55
2023-02-04T12:09:22.598Z,908.05
2023-02-04T12:11:57.663Z,904.10
2023-02-04T12:14:33.470Z,912.47
2023-02-04T12:17:00.398Z,917.42
2023-02-04T12:19:27.850Z,904.83
2023-02-04T12:21:55.139Z,901.35
2023-02-04T12:24:21.782Z,900.72
2023-02-04T12:26:48.424Z,904.53
2023-02-04T12:29:15.070Z,889.30
2023-02-04T12:31:41.818Z,891.33
2023-02-04T12:34:08.546Z,886.47
2023-02-04T12:36:35.186Z,877.20
2023-02-04T12:39:03.044Z,878.92
2023-02-04T12:41:29.700Z,878.75
2023-02-04T12:43:56.449Z,872.73
2023-02-04T12:46:23.406Z,862.33
2023-02-04T12:48:50.113Z,863.67
2023-02-04T12:51:16.715Z,859.85
2023-02-04T12:53:43.320Z,870.88
2023-02-04T12:56:09.951Z,867.40
2023-02-04T12:58:36.546Z,865.08
2023-02-04T13:01:04.391Z,864.33
2023-02-04T13:03:31.890Z,859.58
2023-02-04T13:05:58.812Z,861.42
2023-02-04T13:08:25.472Z,868.08
2023-02-04T13:10:52.208Z,862.33
2023-02-04T13:13:19.962Z,858.85
2023-02-04T13:15:47.574Z,858.10
2023-02-04T13:18:17.185Z,856.45
2023-02-04T13:20:46.009Z,854.05
2023-02-04T13:23:13.187Z,852.08
2023-02-04T13:25:40.414Z,849.63
2023-02-04T13:28:07.035Z,854.92
2023-02-04T13:30:33.857Z,855.17
2023-02-04T13:33:00.587Z,847.72
2023-02-04T13:35:27.155Z,849.40
2023-02-04T13:37:55.728Z,844.25
2023-02-04T13:40:23.093Z,853.70
2023-02-04T13:42:49.748Z,851.70
2023-02-04T13:45:16.796Z,849.28
2023-02-04T13:47:43.444Z,853.30
2023-02-04T13:50:10.486Z,852.22
2023-02-04T13:52:37.154Z,850.38
2023-02-04T13:55:03.892Z,858.75
2023-02-04T13:57:31.359Z,849.67
2023-02-04T13:59:58.066Z,851.65
2023-02-04T14:02:25.157Z,849.38
2023-02-04T14:04:51.918Z,847.08
2023-02-04T14:07:18.620Z,853.67
2023-02-04T14:09:48.169Z,850.80
2023-02-04T14:12:15.425Z,848.25
2023-02-04T14:14:42.067Z,850.10
2023-02-04T14:17:08.664Z,850.40
2023-02-04T14:19:35.652Z,853.40
2023-02-04T14:22:02.796Z,847.10
2023-02-04T14:24:29.492Z,848.47
2023-02-04T14:26:56.149Z,851.35
2023-02-04T14:29:22.769Z,857.88
2023-02-04T14:31:49.425Z,856.55
2023-02-04T14:34:16.102Z,864.13
2023-02-04T14:36:42.707Z,858.92
2023-02-04T14:39:09.333Z,865.15
2023-02-04T14:41:35.914Z,864.97
2023-02-04T14:44:02.519Z,870.95
2023-02-04T14:46:29.159Z,880.83
2023-02-04T14:48:56.882Z,903.75
2023-02-04T14:51:23.576Z,913.90
2023-02-04T14:53:50.299Z,920.80
2023-02-04T14:56:17.171Z,922.67
2023-02-04T14:58:43.808Z,921.05
2023-02-04T15:01:10.506Z,922.55
2023-02-04T15:03:37.570Z,922.80
2023-02-04T15:06:04.665Z,923.47
2023-02-04T15:08:32.806Z,925.83
2023-02-04T15:10:59.435Z,930.70
2023-02-04T15:13:27.836Z,929.83
2023-02-04T15:15:54.946Z,934.85
2023-02-04T15:18:21.806Z,932.03
2023-02-04T15:20:48.386Z,935.47
2023-02-04T15:23:15.129Z,924.78
2023-02-04T15:25:41.902Z,918.33
2023-02-04T15:28:10.928Z,912.42
2023-02-04T15:30:38.775Z,907.35
2023-02-04T15:33:05.576Z,909.88
2023-02-04T15:35:32.253Z,868.92
2023-02-04T15:37:58.941Z,858.92
2023-02-04T15:40:30.340Z,846.70
2023-02-04T15:42:58.194Z,844.05
2023-02-04T15:45:24.962Z,835.13
2023-02-04T15:47:51.551Z,841.08
2023-02-04T15:50:18.249Z,833.00
2023-02-04T15:52:44.975Z,835.80
2023-02-04T15:55:11.659Z,825.15
2023-02-04T15:57:38.530Z,823.72
2023-02-04T16:00:06.585Z,804.53
2023-02-04T16:02:33.413Z,812.83
2023-02-04T16:05:00.167Z,799.58
2023-02-04T16:07:26.845Z,799.88
2023-02-04T16:09:53.507Z,779.50
2023-02-04T16:12:20.103Z,773.55
2023-02-04T16:14:46.753Z,782.60
2023-02-04T16:17:13.472Z,769.63
2023-02-04T16:19:40.248Z,775.83
2023-02-04T16:22:07.105Z,777.90
2023-02-04T16:24:34.122Z,778.05
2023-02-04T16:27:00.837Z,800.30
2023-02-04T16:29:27.650Z,768.20
2023-02-04T16:31:54.296Z,776.53
2023-02-04T16:34:21.243Z,794.58
2023-02-04T16:36:47.912Z,775.55
2023-02-04T16:39:14.627Z,779.65
2023-02-04T16:41:41.278Z,777.20
2023-02-04T16:44:08.170Z,780.47
2023-02-04T16:46:34.884Z,777.72
2023-02-04T16:49:01.788Z,781.92
2023-02-04T16:51:28.912Z,781.10
2023-02-04T16:53:55.562Z,789.55
2023-02-04T16:56:22.506Z,769.53
2023-02-04T16:58:49.566Z,777.03
2023-02-04T17:01:17.275Z,777.28
2023-02-04T17:03:44.528Z,776.60
2023-02-04T17:06:14.005Z,764.92
2023-02-04T17:08:40.689Z,762.35
2023-02-04T17:11:26.126Z,767.53
2023-02-04T17:13:52.695Z,747.97
2023-02-04T17:16:19.626Z,757.33
2023-02-04T17:18:46.332Z,765.92
2023-02-04T17:21:12.992Z,762.10
2023-02-04T17:23:40.092Z,763.72
2023-02-04T17:26:06.801Z,754.20
2023-02-04T17:28:33.496Z,758.88
2023-02-04T17:31:00.529Z,759.58
2023-02-04T17:33:28.554Z,765.92
2023-02-04T17:35:55.178Z,760.95
2023-02-04T17:38:22.327Z,759.78
2023-02-04T17:40:50.076Z,753.85
2023-02-04T17:43:17.382Z,757.85
2023-02-04T17:45:44.054Z,763.55
2023-02-04T17:48:10.702Z,761.17
2023-02-04T17:50:40.018Z,765.47
2023-02-04T17:53:08.024Z,775.50
2023-02-04T17:55:36.027Z,756.53
2023-02-04T17:58:15.644Z,769.47
2023-02-04T18:00:44.748Z,766.13
2023-02-04T18:03:14.399Z,764.33
2023-02-04T18:05:47.126Z,764.13
2023-02-04T18:08:27.014Z,761.92
2023-02-04T18:10:55.225Z,762.85
2023-02-04T18:13:28.561Z,767.15
2023-02-04T18:15:58.035Z,750.07
2023-02-04T18:18:27.528Z,763.10
2023-02-04T18:21:14.679Z,763.83
2023-02-04T18:23:41.458Z,767.55
2023-02-04T18:26:16.484Z,759.63
2023-02-04T18:28:46.339Z,754.75
2023-02-04T18:31:32.569Z,756.55
2023-02-04T18:34:02.782Z,742.53
2023-02-04T18:36:32.593Z,753.67
2023-02-04T18:39:01.127Z,752.72
2023-02-04T18:41:33.746Z,750.10
2023-02-04T18:44:15.465Z,762.67
2023-02-04T18:46:46.721Z,751.55
2023-02-04T18:49:21.451Z,745.88
2023-02-04T18:51:48.461Z,747.13
2023-02-04T18:54:36.284Z,732.55
2023-02-04T18:57:21.563Z,736.67
2023-02-04T18:59:48.524Z,727.22
2023-02-04T19:02:35.430Z,727.85
2023-02-04T19:05:13.213Z,723.58
2023-02-04T19:07:40.313Z,722.70
2023-02-04T19:10:29.778Z,721.80
2023-02-04T19:13:21.429Z,729.45
2023-02-04T19:16:04.732Z,725.55
2023-02-04T19:18:42.278Z,730.88
2023-02-04T19:21:23.233Z,731.80
2023-02-04T19:23:50.927Z,730.50
2023-02-04T19:26:27.549Z,721.25
2023-02-04T19:28:55.572Z,723.53
2023-02-04T19:31:22.780Z,725.27
2023-02-04T19:33:55.331Z,732.05
2023-02-04T19:36:36.889Z,719.47
2023-02-04T19:39:39.660Z,723.63
2023-02-04T19:42:27.440Z,721.20
2023-02-04T19:44:54.534Z,721.67
2023-02-04T19:47:41.924Z,715.60
2023-02-04T19:50:14.424Z,711.22
2023-02-04T19:52:46.699Z,718.85
2023-02-04T19:55:32.540Z,714.33
2023-02-04T19:58:02.595Z,714.97
2023-02-04T20:00:40.967Z,712.95
2023-02-04T20:03:42.773Z,712.23
2023-02-04T20:06:26.362Z,704.75
2023-02-04T20:09:00.258Z,703.63
2023-02-04T20:11:35.565Z,707.95
2023-02-04T20:14:21.184Z,704.47
2023-02-04T20:16:53.779Z,708.10
2023-02-04T20:19:26.447Z,701.58
2023-02-04T20:22:20.941Z,700.70
2023-02-04T20:25:03.911Z,705.75
2023-02-04T20:27:38.763Z,697.83
2023-02-04T20:30:08.640Z,698.30
2023-02-04T20:32:45.210Z,696.08
2023-02-04T20:35:20.368Z,700.90
2023-02-04T20:37:52.770Z,699.97
2023-02-04T20:40:27.030Z,701.92
2023-02-04T20:42:58.369Z,691.10
2023-02-04T20:45:42.848Z,690.10
2023-02-04T20:48:15.681Z,692.13
2023-02-04T20:50:43.438Z,690.97
2023-02-04T20:53:30.963Z,682.85
2023-02-04T20:56:04.055Z,674.08
2023-02-04T20:58:35.718Z,677.67
2023-02-04T21:01:02.715Z,675.05
2023-02-04T21:03:35.197Z,668.40
2023-02-04T21:06:03.607Z,672.15
2023-02-04T21:08:43.900Z,664.10
2023-02-04T21:11:10.876Z,669.50
2023-02-04T21:13:37.683Z,669.25
2023-02-04T21:16:05.190Z,661.00
2023-02-04T21:18:34.521Z,657.90
2023-02-04T21:21:03.343Z,661.77
2023-02-04T21:23:29.977Z,658.45
2023-02-04T21:25:56.806Z,660.58
2023-02-04T21:28:23.446Z,651.63
2023-02-04T21:30:50.163Z,658.70
2023-02-04T21:33:17.310Z,662.03
2023-02-04T21:35:44.149Z,662.72
2023-02-04T21:38:11.064Z,660.55
2023-02-04T21:40:38.300Z,647.33
2023-02-04T21:43:08.301Z,628.33
2023-02-04T21:45:37.065Z,656.75
2023-02-04T21:48:05.147Z,632.85
2023-02-04T21:50:32.942Z,618.72
2023-02-04T21:52:59.830Z,636.60
2023-02-04T21:55:27.067Z,638.75
2023-02-04T21:57:53.693Z,620.08
2023-02-04T22:00:23.621Z,624.53
2023-02-04T22:02:51.947Z,625.70
2023-02-04T22:05:19.690Z,630.83
2023-02-04T22:07:46.669Z,645.00
2023-02-04T22:10:16.990Z,651.92
2023-02-04T22:12:43.724Z,649.13
2023-02-04T22:15:17.118Z,653.38
2023-02-04T22:17:44.795Z,646.30
2023-02-04T22:20:15.045Z,649.83
2023-02-04T22:22:45.411Z,651.83
2023-02-04T22:25:14.339Z,649.63
2023-02-04T22:27:41.031Z,651.75
2023-02-04T22:30:08.898Z,632.33
2023-02-04T22:32:35.618Z,628.05
2023-02-04T22:35:02.236Z,631.10
2023-02-04T22:37:28.874Z,640.60
2023-02-04T22:39:55.496Z,641.53
2023-02-04T22:42:22.120Z,650.20
2023-02-04T22:44:48.788Z,647.22
2023-02-04T22:47:15.729Z,649.40
2023-02-04T22:49:42.366Z,642.15
2023-02-04T22:52:08.987Z,645.90
2023-02-04T22:54:36.781Z,636.07
2023-02-04T22:57:04.038Z,644.05
2023-02-04T22:59:30.666Z,636.70
2023-02-04T23:01:57.339Z,642.88
2023-02-04T23:04:24.025Z,649.55
2023-02-04T23:06:50.965Z,624.75
2023-02-04T23:09:18.825Z,630.85
2023-02-04T23:11:45.484Z,636.28
2023-02-04T23:14:12.111Z,648.65
2023-02-04T23:16:38.829Z,662.63
2023-02-04T23:19:05.618Z,646.80
2023-02-04T23:21:32.446Z,647.87
2023-02-04T23:23:59.331Z,651.13
2023-02-04T23:26:26.369Z,656.75
2023-02-04T23:28:53.002Z,638.63
2023-02-04T23:31:19.737Z,641.20
2023-02-04T23:33:46.357Z,635.33
2023-02-04T23:36:13.144Z,658.08
2023-02-04T23:38:39.850Z,647.70
2023-02-04T23:41:06.447Z,640.08
2023-02-04T23:43:33.197Z,652.93
2023-02-04T23:46:06.142Z,636.83
2023-02-04T23:48:32.837Z,636.17
2023-02-04T23:50:59.541Z,645.67
2023-02-04T23:53:26.224Z,636.83
2023-02-04T23:55:52.972Z,645.90
2023-02-04T23:58:19.659Z,654.33
